Time;durP1;ratioP1;P1;durP2;ratioP2;P2;SDS_P1;SDS_P2;PMS_P1;PMS_P2;Temp;Humidity;BMP_temperature;BMP_pressure;BME280_temperature;BME280_humidity;BME280_pressure;Samples;Min_cycle;Max_cycle;Signal;HPM_P1;HPM_P2
2021/08/06 00:00:31;;;;;;;1.70;1.60;;;;;;;24.43;54.81;94704.28;4990020;28;20030;-69
2021/08/06 00:02:57;;;;;;;2.25;2.05;;;;;;;24.53;54.55;94702.63;4989375;28;20492;-70
2021/08/06 00:05:22;;;;;;;2.72;1.95;;;;;;;24.55;54.31;94709.19;4992388;28;20073;-70
2021/08/06 00:07:48;;;;;;;2.33;2.13;;;;;;;24.58;54.18;94704.91;4992074;28;20128;-70
2021/08/06 00:10:13;;;;;;;1.90;1.80;;;;;;;24.65;54.23;94699.38;4992475;28;20026;-69
2021/08/06 00:12:40;;;;;;;1.77;1.67;;;;;;;24.64;54.15;94698.59;4994060;28;20032;-69
2021/08/06 00:15:06;;;;;;;1.80;1.70;;;;;;;24.66;54.15;94700.91;4991540;28;20043;-70
2021/08/06 00:17:31;;;;;;;1.92;1.83;;;;;;;24.66;54.26;94690.03;4991348;28;20108;-70
2021/08/06 00:19:57;;;;;;;1.98;1.88;;;;;;;24.64;54.05;94681.53;4992036;28;20142;-72
2021/08/06 00:22:22;;;;;;;2.35;1.67;;;;;;;24.67;53.52;94690.81;4991893;28;20403;-72
2021/08/06 00:24:47;;;;;;;2.25;2.10;;;;;;;24.72;53.19;94685.72;4993719;28;20034;-70
2021/08/06 00:27:13;;;;;;;2.92;2.15;;;;;;;24.53;53.51;94692.50;5006530;28;20160;-70
2021/08/06 00:29:38;;;;;;;3.67;2.08;;;;;;;24.40;53.50;94682.53;4991923;28;20042;-70
2021/08/06 00:32:04;;;;;;;2.40;2.20;;;;;;;24.25;53.74;94677.22;4991065;28;20045;-70
2021/08/06 00:34:29;;;;;;;2.20;2.10;;;;;;;24.08;53.94;94689.03;4991588;28;20105;-70
2021/08/06 00:36:55;;;;;;;2.03;1.83;;;;;;;23.93;54.34;94690.31;4992989;28;20145;-70
2021/08/06 00:39:21;;;;;;;2.47;1.98;;;;;;;23.85;54.39;94681.44;4991732;28;20129;-70
2021/08/06 00:41:46;;;;;;;2.50;2.30;;;;;;;23.73;54.41;94684.66;5006478;28;20046;-70
2021/08/06 00:44:11;;;;;;;2.40;1.92;;;;;;;23.56;54.85;94683.56;5021246;23;20050;-66
2021/08/06 00:46:37;;;;;;;2.75;2.13;;;;;;;23.53;54.68;94670.78;4995296;28;20046;-66
2021/08/06 00:49:03;;;;;;;2.90;2.40;;;;;;;23.58;54.58;94675.78;5003751;28;20121;-65
2021/08/06 00:51:29;;;;;;;2.47;2.10;;;;;;;23.65;54.90;94689.38;4991978;28;20349;-67
2021/08/06 00:53:55;;;;;;;2.70;2.10;;;;;;;23.64;54.77;94682.38;4989838;28;20081;-66
2021/08/06 00:56:20;;;;;;;2.20;2.10;;;;;;;23.67;54.21;94678.09;4989476;28;20647;-65
2021/08/06 00:58:45;;;;;;;2.30;2.10;;;;;;;23.59;54.37;94680.06;4990034;28;20150;-65
2021/08/06 01:01:11;;;;;;;4.57;1.90;;;;;;;23.50;54.36;94675.09;4986880;28;20030;-65
2021/08/06 01:03:59;;;;;;;5.05;2.58;;;;;;;23.52;54.33;94685.53;4991531;28;20034;-65
2021/08/06 01:06:33;;;;;;;2.53;2.33;;;;;;;23.43;54.40;94690.63;4988968;28;20078;-65
2021/08/06 01:09:01;;;;;;;2.17;2.08;;;;;;;23.35;54.44;94687.97;4988516;28;20034;-65
2021/08/06 01:11:29;;;;;;;2.40;2.20;;;;;;;23.23;54.62;94682.97;4989757;28;20038;-65
2021/08/06 01:13:56;;;;;;;3.35;2.53;;;;;;;23.29;54.47;94688.78;4989411;28;20121;-65
2021/08/06 01:16:27;;;;;;;2.78;2.00;;;;;;;23.22;54.45;94683.38;4987856;28;20031;-65
2021/08/06 01:19:02;;;;;;;2.92;2.60;;;;;;;23.13;54.46;94667.53;4995846;28;20365;-66
2021/08/06 01:21:31;;;;;;;2.83;2.58;;;;;;;23.14;54.57;94674.53;4989976;28;20060;-65
2021/08/06 01:24:00;;;;;;;2.17;2.03;;;;;;;23.05;54.46;94669.53;4988243;28;20041;-65
2021/08/06 01:26:27;;;;;;;3.22;3.03;;;;;;;23.12;54.24;94679.56;4989270;28;20034;-65
2021/08/06 01:28:53;;;;;;;2.85;2.65;;;;;;;23.03;54.06;94676.50;4989635;28;20080;-66
2021/08/06 01:31:27;;;;;;;5.03;3.35;;;;;;;22.78;54.82;94669.22;4995438;28;20049;-66
2021/08/06 01:33:53;;;;;;;2.67;2.47;;;;;;;22.90;54.82;94673.47;5000773;28;20535;-65
2021/08/06 01:36:18;;;;;;;3.20;2.90;;;;;;;22.87;54.56;94678.88;4988649;28;20042;-64
2021/08/06 01:38:44;;;;;;;3.30;3.00;;;;;;;22.80;54.60;94666.13;4989191;28;20586;-65
2021/08/06 01:41:31;;;;;;;2.97;2.67;;;;;;;22.86;54.61;94672.66;4989194;28;20030;-65
2021/08/06 01:44:18;;;;;;;3.25;3.03;;;;;;;22.77;54.76;94669.59;4966286;28;1112711;-65
2021/08/06 01:47:02;;;;;;;3.03;2.83;;;;;;;22.76;54.55;94671.53;4988036;28;20070;-65
2021/08/06 01:49:35;;;;;;;3.50;3.20;;;;;;;22.81;54.09;94664.94;4989633;28;20495;-65
2021/08/06 01:52:12;;;;;;;3.33;3.03;;;;;;;22.77;54.20;94670.38;4989696;28;20030;-65
2021/08/06 01:54:39;;;;;;;3.65;3.25;;;;;;;22.71;54.29;94661.09;4991727;28;20022;-65
2021/08/06 01:57:08;;;;;;;3.35;3.15;;;;;;;22.68;54.02;94656.47;4989260;28;20041;-66
2021/08/06 01:59:34;;;;;;;2.80;2.60;;;;;;;22.68;54.03;94664.63;4989564;28;20045;-65
2021/08/06 02:02:01;;;;;;;3.08;2.83;;;;;;;22.57;54.40;94651.09;4995817;28;20690;-65
2021/08/06 02:04:27;;;;;;;4.13;2.85;;;;;;;22.57;54.06;94661.16;4990540;28;20066;-65
2021/08/06 02:06:53;;;;;;;2.78;2.58;;;;;;;22.49;54.33;94649.56;4991188;28;20053;-65
2021/08/06 02:09:20;;;;;;;3.47;2.70;;;;;;;22.48;54.33;94647.25;4989647;28;20046;-66
2021/08/06 02:11:47;;;;;;;3.35;3.10;;;;;;;22.43;54.52;94650.38;4989422;28;20081;-65
2021/08/06 02:14:16;;;;;;;4.05;2.42;;;;;;;22.38;54.04;94642.66;4988240;28;20058;-65
2021/08/06 02:16:42;;;;;;;2.40;2.30;;;;;;;22.37;54.29;94643.78;4980699;28;20037;-65
2021/08/06 02:19:12;;;;;;;2.63;2.42;;;;;;;22.37;53.97;94641.88;4989210;28;20526;-65
2021/08/06 02:21:38;;;;;;;5.30;2.35;;;;;;;22.38;53.90;94643.41;4990047;28;20046;-66
2021/08/06 02:24:10;;;;;;;3.03;2.40;;;;;;;22.29;54.20;94637.63;4989391;28;20523;-65
2021/08/06 02:26:38;;;;;;;2.72;2.53;;;;;;;22.29;54.27;94643.81;4988517;28;20067;-65
2021/08/06 02:29:07;;;;;;;2.95;2.45;;;;;;;22.25;54.17;94640.34;4987977;28;20038;-65
2021/08/06 02:31:34;;;;;;;2.67;2.40;;;;;;;22.27;54.32;94639.97;4980223;28;20567;-65
2021/08/06 02:34:01;;;;;;;2.30;2.15;;;;;;;22.26;54.14;94641.09;4988939;28;20057;-65
2021/08/06 02:36:26;;;;;;;2.10;2.00;;;;;;;22.18;54.43;94626.81;4990701;28;20118;-65
2021/08/06 02:38:56;;;;;;;2.50;2.30;;;;;;;22.27;54.59;94638.03;4984608;28;20538;-65
2021/08/06 02:41:22;;;;;;;2.53;2.20;;;;;;;22.33;54.67;94635.69;4988985;28;20034;-66
2021/08/06 02:43:48;;;;;;;2.97;1.90;;;;;;;22.48;54.81;94626.34;4989089;28;20105;-66
2021/08/06 02:46:15;;;;;;;2.70;2.00;;;;;;;22.69;54.46;94632.84;4980177;28;20019;-66
2021/08/06 02:48:40;;;;;;;2.25;1.95;;;;;;;22.78;54.40;94625.84;4998717;28;20026;-65
2021/08/06 02:51:06;;;;;;;1.63;1.52;;;;;;;22.90;54.26;94635.50;4989300;28;20042;-66
2021/08/06 02:53:31;;;;;;;1.67;1.58;;;;;;;22.93;54.00;94632.00;4987606;28;20034;-65
2021/08/06 02:55:57;;;;;;;2.28;1.85;;;;;;;22.89;54.26;94635.91;4988680;28;20038;-65
2021/08/06 02:58:22;;;;;;;3.03;1.55;;;;;;;22.95;53.74;94626.19;4988026;28;20136;-66
2021/08/06 03:00:48;;;;;;;1.80;1.70;;;;;;;22.88;53.85;94628.88;4986549;28;20031;-65
2021/08/06 03:03:14;;;;;;;1.17;1.10;;;;;;;22.77;53.90;94632.41;4984691;28;20500;-65
2021/08/06 03:05:39;;;;;;;2.22;1.50;;;;;;;22.79;53.45;94632.81;4988710;28;20261;-65
2021/08/06 03:08:05;;;;;;;1.85;1.75;;;;;;;22.78;54.27;94628.56;5003394;28;20042;-65
2021/08/06 03:10:30;;;;;;;2.65;1.67;;;;;;;22.76;54.00;94632.81;4988958;28;20030;-65
2021/08/06 03:12:55;;;;;;;2.78;1.67;;;;;;;22.74;54.37;94630.50;4990803;28;20045;-65
2021/08/06 03:15:21;;;;;;;2.15;1.95;;;;;;;22.90;54.59;94635.50;4988944;28;20092;-66
2021/08/06 03:17:47;;;;;;;1.40;1.30;;;;;;;22.91;54.28;94620.75;4982526;28;20070;-65
2021/08/06 03:20:15;;;;;;;1.50;1.40;;;;;;;22.72;53.86;94605.72;5005402;28;20029;-65
2021/08/06 03:22:41;;;;;;;2.92;1.70;;;;;;;22.79;53.32;94638.22;5008339;28;20565;-66
2021/08/06 03:25:08;;;;;;;1.20;1.10;;;;;;;22.38;53.33;94654.25;5008417;28;20090;-65
2021/08/06 03:27:34;;;;;;;1.55;1.45;;;;;;;22.38;53.91;94648.06;5009871;28;20486;-65
2021/08/06 03:30:00;;;;;;;2.72;1.17;;;;;;;22.51;54.23;94635.63;5008438;28;20041;-65
2021/08/06 03:32:25;;;;;;;1.48;1.38;;;;;;;21.70;55.09;94638.06;4987158;28;20105;-66
2021/08/06 03:34:51;;;;;;;0.90;0.90;;;;;;;21.67;54.82;94646.94;5002321;28;20500;-65
2021/08/06 03:37:16;;;;;;;1.50;1.40;;;;;;;21.08;55.65;94630.22;5007803;28;20666;-65
2021/08/06 03:39:41;;;;;;;2.90;1.30;;;;;;;21.36;55.69;94642.28;5013837;28;20046;-65
2021/08/06 03:42:07;;;;;;;1.42;1.00;;;;;;;21.52;55.04;94634.56;5011984;28;20053;-65
2021/08/06 03:44:33;;;;;;;1.85;1.40;;;;;;;21.59;54.91;94637.28;5010546;28;20050;-66
2021/08/06 03:46:58;;;;;;;1.85;1.20;;;;;;;21.94;54.79;94641.13;4993777;28;20133;-65
2021/08/06 03:49:23;;;;;;;1.52;1.30;;;;;;;22.31;54.25;94644.19;5007292;28;20050;-65
2021/08/06 03:51:49;;;;;;;2.13;1.45;;;;;;;22.12;54.32;94658.19;4993997;28;20084;-67
2021/08/06 03:54:14;;;;;;;1.27;1.10;;;;;;;22.04;54.05;94651.94;4992305;28;20038;-65
2021/08/06 03:56:39;;;;;;;2.20;1.40;;;;;;;22.14;53.61;94657.78;4991560;28;20046;-65
2021/08/06 03:59:05;;;;;;;1.63;1.20;;;;;;;22.11;53.70;94661.25;4992175;28;20072;-65
2021/08/06 04:01:30;;;;;;;1.30;1.20;;;;;;;22.38;54.45;94658.91;4987637;28;20042;-66
2021/08/06 04:03:56;;;;;;;1.75;1.48;;;;;;;22.55;54.15;94660.78;4993939;28;20018;-66
2021/08/06 04:06:21;;;;;;;1.40;1.30;;;;;;;22.24;53.34;94668.59;4991587;28;20046;-65
2021/08/06 04:08:46;;;;;;;1.38;1.23;;;;;;;22.22;54.04;94668.22;4990460;28;20133;-65
2021/08/06 04:11:12;;;;;;;2.75;1.50;;;;;;;22.69;54.38;94660.72;4991756;28;20496;-66
2021/08/06 04:13:37;;;;;;;2.05;1.20;;;;;;;22.99;54.45;94656.78;4992042;28;20030;-66
2021/08/06 04:16:03;;;;;;;2.22;1.55;;;;;;;23.19;53.86;94657.84;4986963;28;20104;-65
2021/08/06 04:18:28;;;;;;;2.38;1.10;;;;;;;23.47;53.83;94650.66;5000772;28;20042;-65
2021/08/06 04:20:53;;;;;;;1.50;1.23;;;;;;;23.68;53.79;94644.34;5006666;28;20039;-65
2021/08/06 04:23:19;;;;;;;4.47;1.40;;;;;;;23.88;53.82;94647.28;4991639;28;20037;-65
2021/08/06 04:25:44;;;;;;;1.70;1.60;;;;;;;24.15;53.40;94644.72;4991099;28;20046;-65
2021/08/06 04:28:10;;;;;;;1.55;1.45;;;;;;;24.27;53.62;94657.81;4991867;28;20022;-66
2021/08/06 04:30:35;;;;;;;3.53;1.30;;;;;;;24.46;53.17;94648.31;4993403;28;20442;-66
2021/08/06 04:33:01;;;;;;;2.35;1.45;;;;;;;24.45;53.43;94639.38;5002753;28;20070;-65
2021/08/06 04:35:29;;;;;;;1.58;1.15;;;;;;;24.59;52.79;94635.75;4991481;28;20396;-69
2021/08/06 04:37:56;;;;;;;2.45;1.20;;;;;;;24.86;52.53;94635.81;4987590;28;20038;-67
2021/08/06 04:40:21;;;;;;;1.08;1.00;;;;;;;25.00;52.13;94653.91;4991629;28;20430;-67
2021/08/06 04:42:47;;;;;;;1.38;1.05;;;;;;;25.03;52.27;94647.63;4992982;28;20525;-66
2021/08/06 04:45:13;;;;;;;1.27;1.17;;;;;;;25.03;52.35;94647.63;4991432;28;20503;-66
2021/08/06 04:47:46;;;;;;;1.25;1.15;;;;;;;25.04;51.88;94649.19;4996144;28;20039;-67
2021/08/06 04:50:14;;;;;;;2.08;1.15;;;;;;;25.07;51.74;94653.81;4991056;28;20133;-66
2021/08/06 04:52:40;;;;;;;1.15;1.00;;;;;;;25.10;52.12;94642.13;4989702;28;20459;-68
2021/08/06 04:55:06;;;;;;;1.23;1.08;;;;;;;25.22;51.97;94638.84;4990752;28;20105;-69
2021/08/06 04:57:32;;;;;;;2.00;1.38;;;;;;;25.18;51.25;94637.34;4991487;28;20105;-75
2021/08/06 04:59:57;;;;;;;2.05;1.30;;;;;;;25.26;51.58;94612.34;4990737;28;20589;-68
2021/08/06 05:02:22;;;;;;;1.35;1.10;;;;;;;25.41;51.45;94630.03;5003783;28;20050;-69
2021/08/06 05:04:48;;;;;;;2.80;1.67;;;;;;;25.39;51.62;94631.63;4991063;28;20062;-69
2021/08/06 05:07:18;;;;;;;3.70;1.52;;;;;;;25.47;51.72;94624.13;4991051;28;20447;-69
2021/08/06 05:09:46;;;;;;;1.40;1.30;;;;;;;25.38;51.96;94641.72;4992928;28;20034;-68
2021/08/06 05:12:12;;;;;;;1.40;1.23;;;;;;;25.37;51.62;94625.81;4990863;28;20034;-68
2021/08/06 05:14:38;;;;;;;1.73;1.50;;;;;;;25.40;51.60;94642.09;4990847;28;20042;-68
2021/08/06 05:17:03;;;;;;;1.90;1.73;;;;;;;25.40;51.81;94625.00;4988416;28;20035;-68
2021/08/06 05:19:28;;;;;;;2.17;1.90;;;;;;;25.46;52.09;94636.19;4990533;28;20062;-68
2021/08/06 05:21:54;;;;;;;1.98;1.70;;;;;;;25.43;51.56;94640.50;5007884;28;20026;-68
2021/08/06 05:24:19;;;;;;;1.70;1.48;;;;;;;25.44;51.31;94643.97;4990764;28;20396;-68
2021/08/06 05:26:45;;;;;;;4.50;1.52;;;;;;;25.47;51.71;94638.50;5005177;28;20057;-68
2021/08/06 05:29:10;;;;;;;1.50;1.40;;;;;;;25.50;51.93;94632.22;5005631;28;20101;-68
2021/08/06 05:31:35;;;;;;;2.17;1.27;;;;;;;25.58;51.48;94635.59;4989366;28;20061;-68
2021/08/06 05:34:01;;;;;;;2.30;1.50;;;;;;;25.50;51.44;94628.75;4990232;28;20438;-68
2021/08/06 05:36:26;;;;;;;1.70;1.60;;;;;;;25.68;51.63;94640.13;4991839;28;20022;-67
2021/08/06 05:38:52;;;;;;;4.88;1.70;;;;;;;25.49;52.19;94611.63;4990529;28;20044;-67
2021/08/06 05:41:17;;;;;;;3.53;1.17;;;;;;;25.72;51.90;94631.91;5004100;28;20061;-67
2021/08/06 05:43:44;;;;;;;2.08;1.50;;;;;;;25.94;52.29;94644.00;4994896;28;20040;-67
2021/08/06 05:46:10;;;;;;;3.17;1.63;;;;;;;26.06;51.60;94646.16;4994717;28;20035;-72
2021/08/06 05:48:35;;;;;;;3.60;1.35;;;;;;;26.17;51.80;94641.28;4986256;28;20507;-76
2021/08/06 05:51:00;;;;;;;2.55;1.67;;;;;;;26.27;52.46;94633.34;4991141;28;20038;-72
2021/08/06 05:53:26;;;;;;;3.33;1.50;;;;;;;26.27;51.67;94631.38;4990682;28;20026;-79
2021/08/06 05:55:52;;;;;;;4.55;1.50;;;;;;;26.49;52.11;94647.38;4990291;28;20125;-71
2021/08/06 05:58:17;;;;;;;3.75;1.50;;;;;;;26.61;51.52;94646.75;4990353;28;20051;-71
2021/08/06 06:00:42;;;;;;;1.63;1.52;;;;;;;26.67;51.58;94642.34;4990304;28;20023;-68
2021/08/06 06:03:08;;;;;;;3.50;1.52;;;;;;;26.61;51.24;94636.59;4981912;28;20158;-69
2021/08/06 06:05:33;;;;;;;1.88;1.58;;;;;;;26.69;50.53;94639.97;4997464;28;20042;-71
2021/08/06 06:07:58;;;;;;;3.88;1.80;;;;;;;26.72;51.03;94614.59;4989891;28;20468;-71
2021/08/06 06:10:24;;;;;;;3.58;2.00;;;;;;;26.84;50.94;94627.56;5005349;28;20097;-66
2021/08/06 06:12:51;;;;;;;2.00;1.80;;;;;;;26.93;51.11;94635.97;4991693;28;20484;-66
2021/08/06 06:15:17;;;;;;;3.13;1.63;;;;;;;27.01;50.60;94635.81;4988347;28;20129;-67
2021/08/06 06:17:43;;;;;;;3.42;2.00;;;;;;;26.95;51.23;94633.59;4981454;28;20389;-67
2021/08/06 06:20:09;;;;;;;3.42;1.42;;;;;;;27.04;50.91;94627.56;4989730;28;20046;-66
2021/08/06 06:22:34;;;;;;;3.15;1.48;;;;;;;27.26;50.67;94627.88;4989537;28;20392;-69
2021/08/06 06:25:00;;;;;;;2.70;1.60;;;;;;;27.49;50.68;94632.47;4990043;28;20113;-65
2021/08/06 06:27:25;;;;;;;3.22;1.77;;;;;;;27.98;51.05;94630.50;4990959;28;20077;-69
2021/08/06 06:29:51;;;;;;;1.63;1.52;;;;;;;28.31;49.32;94622.28;5004256;28;20062;-69
2021/08/06 06:32:16;;;;;;;2.72;1.35;;;;;;;28.65;49.74;94629.19;4982297;28;20097;-64
2021/08/06 06:34:42;;;;;;;1.38;1.27;;;;;;;28.95;50.00;94631.50;4989177;28;20034;-69
2021/08/06 06:37:07;;;;;;;1.30;1.20;;;;;;;28.65;47.45;94642.88;4988503;28;20018;-73
2021/08/06 06:39:33;;;;;;;1.77;1.48;;;;;;;28.76;47.68;94641.38;4991643;28;20595;-72
2021/08/06 06:41:58;;;;;;;1.33;1.00;;;;;;;29.24;48.03;94647.88;4987793;28;20548;-68
2021/08/06 06:44:23;;;;;;;1.35;1.23;;;;;;;29.49;47.03;94644.38;5029662;23;20050;-78
2021/08/06 06:46:49;;;;;;;2.40;1.40;;;;;;;28.75;44.02;94650.03;5002299;28;20036;-77
2021/08/06 06:49:14;;;;;;;1.58;1.30;;;;;;;29.17;47.24;94647.31;4991668;28;20030;-76
2021/08/06 06:51:40;;;;;;;1.65;1.20;;;;;;;29.56;46.98;94642.66;4991451;28;20491;-76
2021/08/06 06:54:05;;;;;;;1.67;1.35;;;;;;;29.76;47.14;94643.19;4987836;28;20062;-76
2021/08/06 06:56:31;;;;;;;2.25;1.30;;;;;;;29.17;39.17;94663.72;4988642;28;20062;-76
2021/08/06 06:58:56;;;;;;;1.83;1.20;;;;;;;28.66;47.12;94667.09;4988074;28;20051;-76
2021/08/06 07:01:21;;;;;;;3.58;1.45;;;;;;;28.29;46.82;94648.50;4987477;28;20119;-78
2021/08/06 07:03:47;;;;;;;2.22;2.03;;;;;;;27.95;49.05;94663.41;5008992;28;20030;-77
2021/08/06 07:06:19;;;;;;;1.23;1.13;;;;;;;27.79;47.78;94660.66;5024278;28;20037;-75
2021/08/06 07:08:44;;;;;;;;;;;;;;;27.60;48.64;94678.66;5008224;28;20403;-74
2021/08/06 07:11:10;;;;;;;1.35;1.25;;;;;;;27.24;49.22;94665.00;5005245;28;19917;-76
2021/08/06 07:13:35;;;;;;;3.13;1.38;;;;;;;27.20;49.66;94679.50;5006861;28;20034;-73
2021/08/06 07:16:01;;;;;;;2.25;1.70;;;;;;;27.10;49.61;94704.28;5011070;28;20057;-71
2021/08/06 07:18:27;;;;;;;1.70;1.60;;;;;;;26.76;45.87;94708.03;5009558;28;20100;-74
2021/08/06 07:20:52;;;;;;;4.15;1.88;;;;;;;26.76;49.65;94708.03;5011738;28;20132;-77
2021/08/06 07:23:18;;;;;;;1.50;1.40;;;;;;;26.81;49.37;94720.41;5012140;28;20030;-76
2021/08/06 07:25:44;;;;;;;1.83;1.63;;;;;;;26.95;50.30;94737.28;5013159;28;20042;-75
2021/08/06 07:28:09;;;;;;;1.63;1.48;;;;;;;26.98;49.61;94737.66;5012226;28;20022;-76
2021/08/06 07:30:36;;;;;;;1.92;1.52;;;;;;;27.20;49.97;94734.09;5013485;28;20018;-74
2021/08/06 07:33:01;;;;;;;2.58;1.65;;;;;;;27.02;44.97;94747.28;5030891;28;20034;-74
2021/08/06 07:35:31;;;;;;;1.83;1.63;;;;;;;25.57;46.29;94764.78;4995420;28;20511;-74
2021/08/06 07:37:57;;;;;;;1.85;1.63;;;;;;;24.78;50.13;94768.41;4993251;28;20121;-75
2021/08/06 07:40:22;;;;;;;5.68;2.20;;;;;;;23.97;49.17;94767.13;4992271;28;20113;-75
2021/08/06 07:42:48;;;;;;;4.35;1.77;;;;;;;22.73;53.34;94769.19;4995262;28;20524;-74
2021/08/06 07:45:14;;;;;;;2.25;2.05;;;;;;;23.70;54.58;94762.25;4993663;28;20109;-75
2021/08/06 07:47:39;;;;;;;3.78;2.28;;;;;;;23.14;52.88;94774.91;5000520;28;20054;-75
2021/08/06 07:50:06;;;;;;;1.77;1.67;;;;;;;21.87;55.73;94780.00;5012953;28;20030;-75
2021/08/06 07:52:31;;;;;;;2.03;1.90;;;;;;;22.29;55.53;94773.09;5013209;28;20038;-74
2021/08/06 07:54:58;;;;;;;2.83;1.98;;;;;;;23.13;54.33;94773.34;5014924;28;20089;-75
2021/08/06 07:57:23;;;;;;;2.83;1.90;;;;;;;23.01;54.42;94769.13;5013199;28;20104;-75
2021/08/06 07:59:49;;;;;;;2.60;1.88;;;;;;;24.83;52.55;94757.09;5011643;28;20500;-77
2021/08/06 08:02:14;;;;;;;3.20;1.80;;;;;;;25.15;51.98;94754.03;5009635;28;20049;-76
2021/08/06 08:04:39;;;;;;;2.65;1.55;;;;;;;26.53;50.41;94760.69;5011731;28;20542;-75
2021/08/06 08:07:05;;;;;;;1.88;1.77;;;;;;;26.72;48.85;94755.66;5012507;28;20046;-75
2021/08/06 08:09:30;;;;;;;1.83;1.42;;;;;;;26.60;47.52;94760.53;5014505;28;20044;-76
2021/08/06 08:11:56;;;;;;;3.83;1.70;;;;;;;26.30;49.58;94749.72;5011116;28;20034;-74
2021/08/06 08:14:21;;;;;;;2.65;1.60;;;;;;;27.57;48.85;94758.72;5011007;28;20064;-76
2021/08/06 08:16:47;;;;;;;3.78;1.75;;;;;;;28.10;48.25;94762.25;5026788;28;20125;-75
2021/08/06 08:19:13;;;;;;;2.20;1.60;;;;;;;27.96;46.27;94774.28;5010384;28;20521;-77
2021/08/06 08:21:39;;;;;;;2.63;1.73;;;;;;;28.59;45.64;94768.50;5014412;28;20030;-75
2021/08/06 08:24:05;;;;;;;1.65;1.50;;;;;;;28.79;46.36;94751.97;5011703;28;20041;-74
2021/08/06 08:26:30;;;;;;;1.60;1.50;;;;;;;29.23;45.64;94752.41;5010542;28;20042;-75
2021/08/06 08:28:56;;;;;;;1.98;1.60;;;;;;;29.57;45.22;94757.31;5011891;28;20553;-76
2021/08/06 08:31:21;;;;;;;2.70;1.70;;;;;;;30.01;44.54;94754.81;5012358;28;20042;-77
2021/08/06 08:33:46;;;;;;;2.45;1.85;;;;;;;30.31;43.61;94748.03;5028671;28;20118;-76
2021/08/06 08:36:12;;;;;;;1.60;1.50;;;;;;;30.73;44.71;94747.84;5011294;28;20180;-76
2021/08/06 08:38:37;;;;;;;1.35;1.25;;;;;;;31.10;43.63;94753.63;5011989;28;20050;-76
2021/08/06 08:41:03;;;;;;;1.40;1.30;;;;;;;31.35;43.55;94745.28;5026771;28;20062;-76
2021/08/06 08:43:29;;;;;;;1.95;1.33;;;;;;;31.37;41.12;94744.84;5010373;28;20205;-75
2021/08/06 08:45:56;;;;;;;1.50;1.27;;;;;;;31.57;41.25;94748.78;5013350;28;20045;-76
2021/08/06 08:48:21;;;;;;;1.90;1.10;;;;;;;31.23;43.00;94757.09;5009402;28;20026;-75
2021/08/06 08:50:52;;;;;;;1.05;1.00;;;;;;;31.30;41.83;94741.16;5011562;28;20072;-75
2021/08/06 08:53:17;;;;;;;2.63;1.15;;;;;;;31.25;42.27;94754.66;5011654;28;20038;-76
2021/08/06 08:55:42;;;;;;;1.20;1.10;;;;;;;31.04;36.94;94751.47;5010908;28;20118;-77
2021/08/06 08:58:11;;;;;;;1.42;1.33;;;;;;;30.71;39.27;94761.25;5009974;28;20033;-75
2021/08/06 09:00:36;;;;;;;1.20;1.10;;;;;;;29.98;37.49;94750.97;5013056;28;20475;-75
2021/08/06 09:03:02;;;;;;;1.13;1.13;;;;;;;30.20;38.98;94740.16;5012328;28;20041;-75
2021/08/06 09:05:28;;;;;;;1.10;1.05;;;;;;;30.39;42.07;94756.78;5009729;28;20045;-75
2021/08/06 09:07:55;;;;;;;1.40;1.30;;;;;;;30.85;42.77;94735.28;5010986;28;20109;-76
2021/08/06 09:10:26;;;;;;;1.00;0.90;;;;;;;30.04;39.39;94735.50;5009829;28;20121;-77
2021/08/06 09:12:59;;;;;;;1.63;1.13;;;;;;;29.14;39.02;94755.75;5012991;28;20037;-77
2021/08/06 09:15:46;;;;;;;1.27;0.90;;;;;;;28.99;41.12;94733.47;5011472;28;20042;-76
2021/08/06 09:18:35;;;;;;;1.80;1.05;;;;;;;28.47;40.80;94748.09;5010361;28;20038;-76
2021/08/06 09:21:15;;;;;;;1.70;1.23;;;;;;;26.55;43.86;94762.97;5010778;28;20132;-76
2021/08/06 09:23:59;;;;;;;1.23;1.05;;;;;;;24.97;47.45;94771.69;5010910;28;20042;-75
2021/08/06 09:26:30;;;;;;;2.00;1.42;;;;;;;26.26;45.18;94768.09;5009337;28;20116;-74
2021/08/06 09:29:09;;;;;;;1.10;1.10;;;;;;;26.68;44.64;94761.19;5010726;28;20089;-75
2021/08/06 09:31:56;;;;;;;1.63;1.10;;;;;;;25.00;46.72;94758.06;5010452;28;20037;-75
2021/08/06 09:34:27;;;;;;;1.20;1.10;;;;;;;24.55;45.93;94752.69;5007994;28;20038;-75
2021/08/06 09:37:02;;;;;;;2.88;1.55;;;;;;;26.05;45.67;94763.75;4991892;28;20030;-73
2021/08/06 09:39:34;;;;;;;1.75;1.10;;;;;;;26.29;43.84;94768.03;4991259;28;20039;-74
2021/08/06 09:42:00;;;;;;;1.10;1.00;;;;;;;27.08;43.22;94762.06;4990467;28;20086;-74
2021/08/06 09:44:28;;;;;;;1.95;1.48;;;;;;;28.59;41.66;94748.59;5005580;28;20035;-74
2021/08/06 09:46:53;;;;;;;1.58;1.20;;;;;;;28.44;40.55;94751.69;4988741;28;20054;-75
2021/08/06 09:49:20;;;;;;;1.23;1.08;;;;;;;28.01;38.69;94751.16;5007347;28;20052;-74
2021/08/06 09:51:51;;;;;;;1.90;1.60;;;;;;;28.64;38.87;94757.06;5017540;28;20113;-74
2021/08/06 09:54:27;;;;;;;1.45;1.30;;;;;;;27.29;39.41;94752.66;5010355;28;20030;-74
2021/08/06 09:57:09;;;;;;;2.03;1.30;;;;;;;24.56;45.20;94754.22;5009633;28;20084;-74
2021/08/06 09:59:35;;;;;;;;;;;;;;;25.80;43.86;94775.03;5009294;28;20415;-75
2021/08/06 10:02:30;;;;;;;3.45;1.38;;;;;;;25.64;44.27;94767.41;5010516;28;20414;-74
2021/08/06 10:05:05;;;;;;;2.35;1.30;;;;;;;26.53;41.38;94768.84;5004793;28;20046;-73
2021/08/06 10:07:34;;;;;;;1.75;1.50;;;;;;;27.52;39.41;94761.94;5009544;28;20444;-73
2021/08/06 10:10:00;;;;;;;2.40;1.30;;;;;;;26.36;41.70;94778.84;5009673;28;20037;-73
2021/08/06 10:12:26;;;;;;;1.58;1.35;;;;;;;26.10;43.14;94766.00;5011714;28;20515;-73
2021/08/06 10:14:52;;;;;;;1.92;1.33;;;;;;;26.38;41.64;94762.84;5008433;28;20065;-74
2021/08/06 10:17:18;;;;;;;1.30;1.20;;;;;;;27.16;41.24;94771.63;5009127;28;20038;-74
2021/08/06 10:19:43;;;;;;;3.13;1.40;;;;;;;27.18;40.81;94773.97;5002471;28;20570;-73
2021/08/06 10:22:09;;;;;;;2.17;1.50;;;;;;;26.73;39.80;94763.44;5009470;28;20080;-72
2021/08/06 10:24:37;;;;;;;2.03;1.50;;;;;;;26.57;40.86;94775.03;5011386;28;20030;-72
2021/08/06 10:27:02;;;;;;;2.25;1.40;;;;;;;26.19;40.71;94750.66;5007862;28;20041;-73
2021/08/06 10:29:28;;;;;;;2.40;1.40;;;;;;;27.20;38.97;94755.19;5009554;28;20045;-73
2021/08/06 10:32:14;;;;;;;5.50;1.27;;;;;;;26.16;40.84;94748.03;5024492;28;20470;-73
2021/08/06 10:35:02;;;;;;;1.58;1.30;;;;;;;27.42;38.19;94748.09;5002819;28;20073;-73
2021/08/06 10:37:55;;;;;;;1.80;1.25;;;;;;;27.46;40.05;94745.28;5008896;28;20042;-73
2021/08/06 10:40:37;;;;;;;3.95;1.42;;;;;;;26.36;40.75;94748.84;5007698;28;20567;-72
2021/08/06 10:43:08;;;;;;;2.40;1.30;;;;;;;25.78;40.85;94750.13;5008775;28;20472;-73
2021/08/06 10:45:46;;;;;;;;;;;;;;;26.93;38.58;94745.16;5011047;28;20530;-72
2021/08/06 10:48:30;;;;;;;1.98;1.20;;;;;;;25.32;41.51;94746.06;5003414;28;19922;-73
2021/08/06 10:51:14;;;;;;;3.58;1.63;;;;;;;25.10;42.01;94749.03;5008993;28;20104;-73
2021/08/06 10:54:09;;;;;;;2.53;1.20;;;;;;;24.87;40.56;94725.16;5008913;28;20065;-73
2021/08/06 10:56:39;;;;;;;1.77;1.10;;;;;;;24.36;41.07;94735.03;5008561;28;20050;-72
2021/08/06 10:59:14;;;;;;;3.22;1.27;;;;;;;24.80;40.38;94730.69;5009279;28;20045;-73
2021/08/06 11:01:42;;;;;;;1.85;1.02;;;;;;;25.46;39.76;94745.09;5009158;28;20102;-74
2021/08/06 11:04:11;;;;;;;1.10;1.00;;;;;;;27.29;39.14;94725.34;5003580;28;20041;-73
2021/08/06 11:06:54;;;;;;;2.30;1.30;;;;;;;26.43;38.09;94723.44;5017836;28;20026;-73
2021/08/06 11:09:26;;;;;;;1.20;0.93;;;;;;;25.44;39.53;94734.63;5009080;28;20068;-74
2021/08/06 11:12:10;;;;;;;1.20;1.10;;;;;;;25.34;39.62;94713.75;5009253;28;20041;-74
2021/08/06 11:14:35;;;;;;;2.13;1.00;;;;;;;25.97;38.50;94721.44;5007937;28;20060;-73
2021/08/06 11:17:11;;;;;;;1.85;1.13;;;;;;;27.92;36.42;94716.97;5008356;28;20559;-74
2021/08/06 11:19:42;;;;;;;2.88;1.20;;;;;;;27.63;34.97;94719.53;5012586;28;20074;-74
2021/08/06 11:22:27;;;;;;;3.38;1.40;;;;;;;27.48;33.82;94716.34;5019854;28;20029;-74
2021/08/06 11:25:05;;;;;;;1.88;0.77;;;;;;;27.19;35.31;94708.00;5030554;28;20093;-74
2021/08/06 11:27:35;;;;;;;1.45;1.35;;;;;;;27.59;34.20;94713.41;5028521;28;20045;-74
2021/08/06 11:30:05;;;;;;;1.30;1.20;;;;;;;26.62;36.95;94711.03;5028360;28;20034;-73
2021/08/06 11:32:44;;;;;;;1.58;1.13;;;;;;;26.15;36.44;94711.78;5028443;28;20034;-74
2021/08/06 11:35:10;;;;;;;1.73;1.17;;;;;;;28.60;33.56;94690.69;5005395;28;20038;-75
2021/08/06 11:37:46;;;;;;;1.40;1.10;;;;;;;28.63;32.76;94706.25;5006968;28;20034;-74